Aérodrome :
LOGIN :

S'inscrire | Disclaimer

   EN    FR    IT 

 










Légende :    VFR   VFR Marginal   IFR   IFR Intensif   IFR Très Intensif
Visi : 
Plafond : 
>= 8 km
>= 3000ft
5 à 8 km
1000 à 3000 ft
1500m à 5 km
500 à 1000 ft
800 à 1500m
200 à 500 ft
< 800m
< 200 ft
Symboles :   Orages  Brouillard  Fortes neiges  Fortes précipitations  Vent > 20 kt
SIGMETs :   Divers  Orages  Givrage  Turbulence  Onde Orograph.  Cendres Volcan.







- Altitude de l'aérodrome : 1465 ft


LSMP - Payerne

DERNIER METAR :
  • 131520Z VRB02KT 5000 -RA FEW005 BKN010 BKN018 10/10 Q1031 RMK GRN

METARs EXPIRÉS :
  • 131450Z 04003KT 7000 -SHRA SCT007 SCT014 BKN022 10/10 Q1030 RMK WHT
  • 131420Z 03003KT 350V050 9999 -SHRA FEW013 10/10 Q1030 RMK BLU+
  • 131350Z 03004KT 350V060 9999 -DZ SCT012 BKN018 10/10 Q1030 RMK WHT
  • 131320Z 01003KT 350V050 9999 FEW009 BKN017 BKN056 10/09 Q1030 RMK WHT
  • 131250Z 03003KT 360V060 9999 -SHRA FEW009 BKN049 11/09 Q1030 RMK BLU

Prévision TAF périmée.
Pas de NOTAMs connus pour ce terrain.



MET'MAP, la Météo Aéronautique d'un coup d'oeil ! - Copyright ORBIFLY Décembre 2007 - Disclaimer

ORBIFLY MET'MAP TEAM :

Programmation & Développement : Alexandra Zaïnal
Conception & Développement : Baudouin d'Aumeries
Co-Programmation & Développement : Marc-Olivier Méhu
Soutien technique & logistique : Manuel Goepfert

Contact : metmap@orbifly.com




SOURCES & CREDITS :

   NOAA